sensor_id;sensor_type;location;lat;lon;timestamp;P1;durP1;ratioP1;P2;durP2;ratioP2
37693;SDS011;23531;50.122;8.644;2022-10-16T02:01:40;8.25;;;4.20;;
37693;SDS011;23531;50.122;8.644;2022-10-16T02:03:45;4.10;;;3.77;;
37693;SDS011;23531;50.122;8.644;2022-10-16T02:05:51;4.43;;;3.45;;
37693;SDS011;23531;50.122;8.644;2022-10-16T02:07:55;4.82;;;3.47;;
37693;SDS011;23531;50.122;8.644;2022-10-16T02:09:56;5.75;;;3.15;;
37693;SDS011;23531;50.122;8.644;2022-10-16T02:11:58;3.72;;;2.80;;
37693;SDS011;23531;50.122;8.644;2022-10-16T02:14:05;5.88;;;2.95;;
37693;SDS011;23531;50.122;8.644;2022-10-16T02:16:08;6.25;;;3.05;;
37693;SDS011;23531;50.122;8.644;2022-10-16T02:18:12;4.25;;;2.80;;
37693;SDS011;23531;50.122;8.644;2022-10-16T02:20:15;5.57;;;2.67;;
37693;SDS011;23531;50.122;8.644;2022-10-16T02:22:18;6.15;;;3.00;;
37693;SDS011;23531;50.122;8.644;2022-10-16T02:26:35;3.15;;;2.70;;
37693;SDS011;23531;50.122;8.644;2022-10-16T02:28:42;4.93;;;2.47;;
37693;SDS011;23531;50.122;8.644;2022-10-16T02:30:49;4.13;;;2.75;;
37693;SDS011;23531;50.122;8.644;2022-10-16T02:32:53;2.38;;;2.10;;
37693;SDS011;23531;50.122;8.644;2022-10-16T02:35:00;5.57;;;2.22;;
37693;SDS011;23531;50.122;8.644;2022-10-16T02:37:03;2.97;;;2.28;;
37693;SDS011;23531;50.122;8.644;2022-10-16T02:39:06;2.60;;;2.30;;
37693;SDS011;23531;50.122;8.644;2022-10-16T02:41:09;2.65;;;2.30;;
37693;SDS011;23531;50.122;8.644;2022-10-16T02:43:10;2.20;;;2.08;;
37693;SDS011;23531;50.122;8.644;2022-10-16T02:45:12;2.83;;;2.13;;
37693;SDS011;23531;50.122;8.644;2022-10-16T02:47:14;4.13;;;2.50;;
37693;SDS011;23531;50.122;8.644;2022-10-16T02:49:15;5.18;;;1.90;;
37693;SDS011;23531;50.122;8.644;2022-10-16T02:51:19;2.45;;;1.90;;
37693;SDS011;23531;50.122;8.644;2022-10-16T02:53:20;5.45;;;1.77;;
37693;SDS011;23531;50.122;8.644;2022-10-16T02:55:22;4.32;;;1.60;;
37693;SDS011;23531;50.122;8.644;2022-10-16T02:57:23;3.22;;;1.80;;
37693;SDS011;23531;50.122;8.644;2022-10-16T02:59:25;3.38;;;1.40;;
37693;SDS011;23531;50.122;8.644;2022-10-16T03:01:26;1.80;;;1.70;;
37693;SDS011;23531;50.122;8.644;2022-10-16T03:03:27;2.42;;;1.75;;
37693;SDS011;23531;50.122;8.644;2022-10-16T03:05:29;3.83;;;1.63;;
37693;SDS011;23531;50.122;8.644;2022-10-16T03:07:32;4.80;;;1.92;;
37693;SDS011;23531;50.122;8.644;2022-10-16T03:09:33;2.75;;;1.60;;
37693;SDS011;23531;50.122;8.644;2022-10-16T03:11:35;3.83;;;1.45;;
37693;SDS011;23531;50.122;8.644;2022-10-16T03:13:36;3.78;;;1.70;;
37693;SDS011;23531;50.122;8.644;2022-10-16T03:15:37;3.20;;;1.40;;
37693;SDS011;23531;50.122;8.644;2022-10-16T03:17:39;1.88;;;1.70;;
37693;SDS011;23531;50.122;8.644;2022-10-16T03:19:40;4.20;;;1.85;;
37693;SDS011;23531;50.122;8.644;2022-10-16T03:21:42;3.10;;;1.42;;
37693;SDS011;23531;50.122;8.644;2022-10-16T03:23:44;2.92;;;1.40;;
37693;SDS011;23531;50.122;8.644;2022-10-16T03:25:46;1.83;;;1.73;;
37693;SDS011;23531;50.122;8.644;2022-10-16T03:27:48;1.40;;;1.30;;
37693;SDS011;23531;50.122;8.644;2022-10-16T03:29:49;2.85;;;1.90;;
37693;SDS011;23531;50.122;8.644;2022-10-16T03:31:51;2.60;;;1.63;;
37693;SDS011;23531;50.122;8.644;2022-10-16T03:33:52;3.53;;;1.60;;
37693;SDS011;23531;50.122;8.644;2022-10-16T03:35:54;1.63;;;1.50;;
37693;SDS011;23531;50.122;8.644;2022-10-16T03:37:55;3.53;;;1.42;;
37693;SDS011;23531;50.122;8.644;2022-10-16T03:39:58;2.95;;;1.40;;
37693;SDS011;23531;50.122;8.644;2022-10-16T03:42:00;1.77;;;1.30;;
37693;SDS011;23531;50.122;8.644;2022-10-16T03:44:01;1.20;;;1.10;;
37693;SDS011;23531;50.122;8.644;2022-10-16T03:46:03;4.20;;;2.22;;
37693;SDS011;23531;50.122;8.644;2022-10-16T03:48:04;1.52;;;1.42;;
37693;SDS011;23531;50.122;8.644;2022-10-16T03:50:06;1.60;;;1.50;;
37693;SDS011;23531;50.122;8.644;2022-10-16T03:52:08;2.90;;;1.42;;
37693;SDS011;23531;50.122;8.644;2022-10-16T03:54:10;3.10;;;1.50;;
37693;SDS011;23531;50.122;8.644;2022-10-16T03:56:13;2.25;;;1.38;;
37693;SDS011;23531;50.122;8.644;2022-10-16T03:58:14;1.88;;;1.13;;
37693;SDS011;23531;50.122;8.644;2022-10-16T04:00:16;5.40;;;1.33;;
37693;SDS011;23531;50.122;8.644;2022-10-16T04:02:17;3.65;;;1.50;;
37693;SDS011;23531;50.122;8.644;2022-10-16T04:04:19;2.38;;;1.80;;
37693;SDS011;23531;50.122;8.644;2022-10-16T04:06:20;3.17;;;1.50;;
37693;SDS011;23531;50.122;8.644;2022-10-16T04:08:22;3.13;;;1.73;;
37693;SDS011;23531;50.122;8.644;2022-10-16T04:10:24;2.08;;;1.67;;
37693;SDS011;23531;50.122;8.644;2022-10-16T04:12:26;2.45;;;1.55;;
37693;SDS011;23531;50.122;8.644;2022-10-16T04:14:30;4.90;;;1.70;;
37693;SDS011;23531;50.122;8.644;2022-10-16T04:16:31;2.80;;;1.85;;
37693;SDS011;23531;50.122;8.644;2022-10-16T04:18:33;4.72;;;1.50;;
37693;SDS011;23531;50.122;8.644;2022-10-16T04:20:35;3.70;;;1.92;;
37693;SDS011;23531;50.122;8.644;2022-10-16T04:22:36;3.17;;;1.60;;
37693;SDS011;23531;50.122;8.644;2022-10-16T04:24:38;1.90;;;1.80;;
37693;SDS011;23531;50.122;8.644;2022-10-16T04:26:39;3.78;;;1.40;;
37693;SDS011;23531;50.122;8.644;2022-10-16T04:28:42;4.63;;;1.20;;
37693;SDS011;23531;50.122;8.644;2022-10-16T04:30:44;1.98;;;1.55;;
37693;SDS011;23531;50.122;8.644;2022-10-16T04:32:47;1.65;;;1.55;;
37693;SDS011;23531;50.122;8.644;2022-10-16T04:34:49;2.92;;;1.80;;
37693;SDS011;23531;50.122;8.644;2022-10-16T04:36:50;3.47;;;1.75;;
37693;SDS011;23531;50.122;8.644;2022-10-16T04:38:52;1.75;;;1.52;;
37693;SDS011;23531;50.122;8.644;2022-10-16T04:40:53;1.80;;;1.50;;
37693;SDS011;23531;50.122;8.644;2022-10-16T04:42:55;7.00;;;1.40;;
37693;SDS011;23531;50.122;8.644;2022-10-16T04:44:57;1.67;;;1.52;;
37693;SDS011;23531;50.122;8.644;2022-10-16T04:46:59;1.38;;;1.27;;
37693;SDS011;23531;50.122;8.644;2022-10-16T04:49:00;3.38;;;1.48;;
37693;SDS011;23531;50.122;8.644;2022-10-16T04:51:02;3.40;;;1.42;;
37693;SDS011;23531;50.122;8.644;2022-10-16T04:53:03;2.30;;;1.50;;
37693;SDS011;23531;50.122;8.644;2022-10-16T04:55:05;4.90;;;1.70;;
37693;SDS011;23531;50.122;8.644;2022-10-16T04:57:07;3.53;;;1.35;;
37693;SDS011;23531;50.122;8.644;2022-10-16T04:59:08;4.30;;;1.50;;
37693;SDS011;23531;50.122;8.644;2022-10-16T05:01:11;3.50;;;1.70;;
37693;SDS011;23531;50.122;8.644;2022-10-16T05:03:13;4.85;;;2.30;;
37693;SDS011;23531;50.122;8.644;2022-10-16T05:05:16;3.90;;;1.60;;
37693;SDS011;23531;50.122;8.644;2022-10-16T05:07:19;4.95;;;1.90;;
37693;SDS011;23531;50.122;8.644;2022-10-16T05:09:20;4.28;;;2.35;;
37693;SDS011;23531;50.122;8.644;2022-10-16T05:11:22;2.30;;;1.73;;
37693;SDS011;23531;50.122;8.644;2022-10-16T05:13:23;3.75;;;1.40;;
37693;SDS011;23531;50.122;8.644;2022-10-16T05:15:25;2.53;;;1.98;;
37693;SDS011;23531;50.122;8.644;2022-10-16T05:17:27;3.03;;;1.80;;
37693;SDS011;23531;50.122;8.644;2022-10-16T05:19:29;2.05;;;1.85;;
37693;SDS011;23531;50.122;8.644;2022-10-16T05:21:30;2.58;;;1.50;;
37693;SDS011;23531;50.122;8.644;2022-10-16T05:23:32;2.33;;;1.40;;
37693;SDS011;23531;50.122;8.644;2022-10-16T05:25:33;3.33;;;1.55;;
37693;SDS011;23531;50.122;8.644;2022-10-16T05:27:35;2.10;;;1.52;;
37693;SDS011;23531;50.122;8.644;2022-10-16T05:29:36;1.38;;;1.15;;
37693;SDS011;23531;50.122;8.644;2022-10-16T05:31:38;1.48;;;1.38;;
37693;SDS011;23531;50.122;8.644;2022-10-16T05:33:41;2.17;;;1.20;;
37693;SDS011;23531;50.122;8.644;2022-10-16T05:35:44;1.60;;;1.40;;
37693;SDS011;23531;50.122;8.644;2022-10-16T05:37:45;2.88;;;1.35;;
37693;SDS011;23531;50.122;8.644;2022-10-16T05:39:47;3.67;;;1.50;;
37693;SDS011;23531;50.122;8.644;2022-10-16T05:41:49;2.92;;;1.40;;
37693;SDS011;23531;50.122;8.644;2022-10-16T05:43:52;3.40;;;1.50;;
37693;SDS011;23531;50.122;8.644;2022-10-16T05:45:54;1.50;;;1.40;;
37693;SDS011;23531;50.122;8.644;2022-10-16T05:47:56;5.18;;;1.90;;
37693;SDS011;23531;50.122;8.644;2022-10-16T05:49:59;4.20;;;2.00;;
37693;SDS011;23531;50.122;8.644;2022-10-16T05:52:00;3.58;;;1.80;;
37693;SDS011;23531;50.122;8.644;2022-10-16T05:54:03;4.35;;;2.70;;
37693;SDS011;23531;50.122;8.644;2022-10-16T05:56:05;2.55;;;1.63;;
37693;SDS011;23531;50.122;8.644;2022-10-16T05:58:07;6.88;;;2.03;;
37693;SDS011;23531;50.122;8.644;2022-10-16T06:00:09;3.83;;;2.03;;
37693;SDS011;23531;50.122;8.644;2022-10-16T06:02:12;2.22;;;2.03;;
37693;SDS011;23531;50.122;8.644;2022-10-16T06:04:14;3.20;;;1.70;;
37693;SDS011;23531;50.122;8.644;2022-10-16T06:06:17;4.00;;;2.10;;
37693;SDS011;23531;50.122;8.644;2022-10-16T06:08:20;5.10;;;2.17;;
37693;SDS011;23531;50.122;8.644;2022-10-16T06:10:23;2.88;;;2.05;;
37693;SDS011;23531;50.122;8.644;2022-10-16T06:12:24;6.15;;;2.20;;
37693;SDS011;23531;50.122;8.644;2022-10-16T06:14:26;2.38;;;2.00;;
37693;SDS011;23531;50.122;8.644;2022-10-16T06:16:27;2.58;;;2.25;;
37693;SDS011;23531;50.122;8.644;2022-10-16T06:18:29;3.63;;;2.00;;
37693;SDS011;23531;50.122;8.644;2022-10-16T06:20:31;4.35;;;2.40;;
37693;SDS011;23531;50.122;8.644;2022-10-16T06:22:34;2.60;;;2.00;;
37693;SDS011;23531;50.122;8.644;2022-10-16T06:24:36;2.97;;;1.92;;
37693;SDS011;23531;50.122;8.644;2022-10-16T06:26:38;7.30;;;5.10;;
37693;SDS011;23531;50.122;8.644;2022-10-16T06:28:39;5.80;;;5.13;;
37693;SDS011;23531;50.122;8.644;2022-10-16T06:30:41;7.90;;;5.00;;
37693;SDS011;23531;50.122;8.644;2022-10-16T06:32:43;5.43;;;3.80;;
37693;SDS011;23531;50.122;8.644;2022-10-16T06:34:45;17.40;;;14.45;;
37693;SDS011;23531;50.122;8.644;2022-10-16T06:36:46;3.47;;;2.47;;
37693;SDS011;23531;50.122;8.644;2022-10-16T06:38:49;5.88;;;2.42;;
37693;SDS011;23531;50.122;8.644;2022-10-16T06:40:51;13.65;;;9.57;;
37693;SDS011;23531;50.122;8.644;2022-10-16T06:42:54;4.78;;;2.03;;
37693;SDS011;23531;50.122;8.644;2022-10-16T06:44:56;3.75;;;2.50;;
37693;SDS011;23531;50.122;8.644;2022-10-16T06:46:57;8.18;;;3.85;;
37693;SDS011;23531;50.122;8.644;2022-10-16T06:48:59;3.60;;;2.10;;
37693;SDS011;23531;50.122;8.644;2022-10-16T06:51:01;2.88;;;2.30;;
37693;SDS011;23531;50.122;8.644;2022-10-16T06:53:04;3.97;;;3.03;;
37693;SDS011;23531;50.122;8.644;2022-10-16T06:55:07;10.27;;;7.68;;
37693;SDS011;23531;50.122;8.644;2022-10-16T06:57:09;11.55;;;8.70;;
37693;SDS011;23531;50.122;8.644;2022-10-16T06:59:10;13.40;;;10.55;;
37693;SDS011;23531;50.122;8.644;2022-10-16T07:01:12;9.65;;;5.97;;
37693;SDS011;23531;50.122;8.644;2022-10-16T07:03:15;7.65;;;6.07;;
37693;SDS011;23531;50.122;8.644;2022-10-16T07:05:16;8.02;;;5.70;;
37693;SDS011;23531;50.122;8.644;2022-10-16T07:07:18;5.82;;;4.70;;
37693;SDS011;23531;50.122;8.644;2022-10-16T07:09:19;6.50;;;4.78;;
37693;SDS011;23531;50.122;8.644;2022-10-16T07:11:23;4.88;;;3.80;;
37693;SDS011;23531;50.122;8.644;2022-10-16T07:13:25;8.35;;;4.40;;
37693;SDS011;23531;50.122;8.644;2022-10-16T07:15:26;5.93;;;4.55;;
37693;SDS011;23531;50.122;8.644;2022-10-16T07:17:28;4.40;;;4.00;;
37693;SDS011;23531;50.122;8.644;2022-10-16T07:19:29;6.63;;;4.45;;
37693;SDS011;23531;50.122;8.644;2022-10-16T07:21:31;8.23;;;4.40;;
37693;SDS011;23531;50.122;8.644;2022-10-16T07:23:35;7.03;;;4.40;;
37693;SDS011;23531;50.122;8.644;2022-10-16T07:25:37;7.05;;;4.93;;
37693;SDS011;23531;50.122;8.644;2022-10-16T07:27:40;5.07;;;4.53;;
37693;SDS011;23531;50.122;8.644;2022-10-16T07:29:41;18.85;;;12.32;;
37693;SDS011;23531;50.122;8.644;2022-10-16T07:31:43;6.38;;;5.05;;
37693;SDS011;23531;50.122;8.644;2022-10-16T07:33:45;7.18;;;4.47;;
37693;SDS011;23531;50.122;8.644;2022-10-16T07:35:48;7.47;;;4.28;;
37693;SDS011;23531;50.122;8.644;2022-10-16T07:37:51;8.35;;;4.93;;
37693;SDS011;23531;50.122;8.644;2022-10-16T07:39:52;5.30;;;4.80;;
37693;SDS011;23531;50.122;8.644;2022-10-16T07:41:54;7.20;;;4.63;;
37693;SDS011;23531;50.122;8.644;2022-10-16T07:43:56;8.13;;;4.90;;
37693;SDS011;23531;50.122;8.644;2022-10-16T07:46:00;5.72;;;4.60;;
37693;SDS011;23531;50.122;8.644;2022-10-16T07:48:01;7.00;;;5.05;;
37693;SDS011;23531;50.122;8.644;2022-10-16T07:50:04;6.18;;;4.47;;
37693;SDS011;23531;50.122;8.644;2022-10-16T07:52:06;5.53;;;4.93;;
37693;SDS011;23531;50.122;8.644;2022-10-16T07:54:08;7.32;;;5.03;;
37693;SDS011;23531;50.122;8.644;2022-10-16T07:56:09;10.30;;;5.88;;
37693;SDS011;23531;50.122;8.644;2022-10-16T07:58:11;6.35;;;4.55;;
37693;SDS011;23531;50.122;8.644;2022-10-16T08:00:14;5.55;;;4.65;;
37693;SDS011;23531;50.122;8.644;2022-10-16T08:02:16;7.55;;;4.80;;
37693;SDS011;23531;50.122;8.644;2022-10-16T08:04:17;7.50;;;4.85;;
37693;SDS011;23531;50.122;8.644;2022-10-16T08:06:19;7.03;;;4.60;;
37693;SDS011;23531;50.122;8.644;2022-10-16T08:08:22;7.28;;;4.85;;
37693;SDS011;23531;50.122;8.644;2022-10-16T08:10:24;7.55;;;4.82;;
37693;SDS011;23531;50.122;8.644;2022-10-16T08:12:27;8.52;;;5.20;;
37693;SDS011;23531;50.122;8.644;2022-10-16T08:14:28;7.97;;;5.22;;
37693;SDS011;23531;50.122;8.644;2022-10-16T08:16:31;7.22;;;4.85;;
37693;SDS011;23531;50.122;8.644;2022-10-16T08:18:33;7.75;;;5.22;;
37693;SDS011;23531;50.122;8.644;2022-10-16T08:20:36;6.95;;;4.55;;
37693;SDS011;23531;50.122;8.644;2022-10-16T08:22:37;8.05;;;4.88;;
37693;SDS011;23531;50.122;8.644;2022-10-16T08:24:39;7.63;;;4.88;;
37693;SDS011;23531;50.122;8.644;2022-10-16T08:26:40;6.80;;;5.32;;
37693;SDS011;23531;50.122;8.644;2022-10-16T08:28:42;6.20;;;5.20;;
37693;SDS011;23531;50.122;8.644;2022-10-16T08:30:43;6.40;;;5.60;;
37693;SDS011;23531;50.122;8.644;2022-10-16T08:32:46;11.18;;;6.43;;
37693;SDS011;23531;50.122;8.644;2022-10-16T08:34:48;7.22;;;5.38;;
37693;SDS011;23531;50.122;8.644;2022-10-16T08:36:49;8.95;;;5.05;;
37693;SDS011;23531;50.122;8.644;2022-10-16T08:38:50;7.97;;;5.30;;
37693;SDS011;23531;50.122;8.644;2022-10-16T08:40:54;7.00;;;5.70;;
37693;SDS011;23531;50.122;8.644;2022-10-16T08:43:12;8.40;;;6.07;;
37693;SDS011;23531;50.122;8.644;2022-10-16T08:45:29;7.97;;;6.22;;
37693;SDS011;23531;50.122;8.644;2022-10-16T08:47:43;7.45;;;5.68;;
37693;SDS011;23531;50.122;8.644;2022-10-16T08:49:53;7.50;;;5.25;;
37693;SDS011;23531;50.122;8.644;2022-10-16T08:51:58;7.15;;;5.50;;
37693;SDS011;23531;50.122;8.644;2022-10-16T08:54:01;7.18;;;6.00;;
37693;SDS011;23531;50.122;8.644;2022-10-16T08:56:06;7.43;;;5.55;;
37693;SDS011;23531;50.122;8.644;2022-10-16T08:58:10;7.38;;;5.72;;
37693;SDS011;23531;50.122;8.644;2022-10-16T09:00:14;7.53;;;6.05;;
37693;SDS011;23531;50.122;8.644;2022-10-16T09:02:22;13.35;;;7.57;;
37693;SDS011;23531;50.122;8.644;2022-10-16T09:07:00;10.68;;;8.27;;
37693;SDS011;23531;50.122;8.644;2022-10-16T09:09:09;28.45;;;21.98;;
37693;SDS011;23531;50.122;8.644;2022-10-16T09:11:24;20.67;;;16.63;;
37693;SDS011;23531;50.122;8.644;2022-10-16T09:13:37;16.67;;;13.82;;
37693;SDS011;23531;50.122;8.644;2022-10-16T09:15:50;14.88;;;12.07;;
37693;SDS011;23531;50.122;8.644;2022-10-16T09:17:58;11.15;;;8.45;;
37693;SDS011;23531;50.122;8.644;2022-10-16T09:20:12;11.30;;;9.18;;
37693;SDS011;23531;50.122;8.644;2022-10-16T09:22:19;9.80;;;8.52;;
37693;SDS011;23531;50.122;8.644;2022-10-16T09:24:25;10.68;;;9.35;;
37693;SDS011;23531;50.122;8.644;2022-10-16T09:26:27;12.10;;;8.10;;
37693;SDS011;23531;50.122;8.644;2022-10-16T09:28:28;10.30;;;8.25;;
37693;SDS011;23531;50.122;8.644;2022-10-16T09:30:30;10.27;;;8.52;;
37693;SDS011;23531;50.122;8.644;2022-10-16T09:32:32;12.00;;;8.23;;
37693;SDS011;23531;50.122;8.644;2022-10-16T09:34:34;10.27;;;9.07;;
37693;SDS011;23531;50.122;8.644;2022-10-16T09:36:41;11.02;;;8.07;;
37693;SDS011;23531;50.122;8.644;2022-10-16T09:38:45;13.27;;;8.95;;
37693;SDS011;23531;50.122;8.644;2022-10-16T09:40:47;11.77;;;9.15;;
37693;SDS011;23531;50.122;8.644;2022-10-16T09:42:48;10.25;;;8.40;;
37693;SDS011;23531;50.122;8.644;2022-10-16T09:44:50;13.75;;;8.75;;
37693;SDS011;23531;50.122;8.644;2022-10-16T09:47:01;19.13;;;14.60;;
37693;SDS011;23531;50.122;8.644;2022-10-16T09:49:04;11.73;;;8.02;;
37693;SDS011;23531;50.122;8.644;2022-10-16T09:51:20;13.40;;;8.77;;
37693;SDS011;23531;50.122;8.644;2022-10-16T09:53:35;14.45;;;9.05;;
37693;SDS011;23531;50.122;8.644;2022-10-16T09:55:49;12.60;;;8.48;;
37693;SDS011;23531;50.122;8.644;2022-10-16T09:57:51;13.63;;;8.52;;
37693;SDS011;23531;50.122;8.644;2022-10-16T09:59:54;11.23;;;8.75;;
37693;SDS011;23531;50.122;8.644;2022-10-16T10:01:58;9.85;;;6.53;;
37693;SDS011;23531;50.122;8.644;2022-10-16T10:04:03;11.82;;;8.15;;
37693;SDS011;23531;50.122;8.644;2022-10-16T10:06:13;12.32;;;8.32;;
37693;SDS011;23531;50.122;8.644;2022-10-16T10:08:18;13.02;;;9.10;;
37693;SDS011;23531;50.122;8.644;2022-10-16T10:10:21;10.27;;;7.38;;
37693;SDS011;23531;50.122;8.644;2022-10-16T10:12:25;10.07;;;8.05;;
37693;SDS011;23531;50.122;8.644;2022-10-16T10:14:30;12.23;;;9.25;;
37693;SDS011;23531;50.122;8.644;2022-10-16T10:16:36;8.20;;;6.57;;
37693;SDS011;23531;50.122;8.644;2022-10-16T10:18:37;9.65;;;7.32;;
37693;SDS011;23531;50.122;8.644;2022-10-16T10:20:39;7.80;;;6.70;;
37693;SDS011;23531;50.122;8.644;2022-10-16T10:22:41;8.43;;;6.55;;
37693;SDS011;23531;50.122;8.644;2022-10-16T10:24:44;8.02;;;6.00;;
37693;SDS011;23531;50.122;8.644;2022-10-16T10:26:53;8.05;;;6.32;;
37693;SDS011;23531;50.122;8.644;2022-10-16T10:29:01;8.25;;;6.10;;
37693;SDS011;23531;50.122;8.644;2022-10-16T10:31:14;7.47;;;5.35;;
37693;SDS011;23531;50.122;8.644;2022-10-16T10:33:25;5.60;;;4.75;;
37693;SDS011;23531;50.122;8.644;2022-10-16T10:35:33;7.13;;;5.03;;
37693;SDS011;23531;50.122;8.644;2022-10-16T10:37:51;5.28;;;4.78;;
37693;SDS011;23531;50.122;8.644;2022-10-16T10:40:02;5.53;;;4.05;;
37693;SDS011;23531;50.122;8.644;2022-10-16T10:42:15;4.90;;;4.25;;
37693;SDS011;23531;50.122;8.644;2022-10-16T10:44:29;6.90;;;4.28;;
37693;SDS011;23531;50.122;8.644;2022-10-16T10:46:32;5.70;;;5.10;;
37693;SDS011;23531;50.122;8.644;2022-10-16T10:48:44;6.47;;;4.45;;
37693;SDS011;23531;50.122;8.644;2022-10-16T10:50:56;6.70;;;4.80;;
37693;SDS011;23531;50.122;8.644;2022-10-16T10:53:03;5.50;;;4.18;;
37693;SDS011;23531;50.122;8.644;2022-10-16T10:55:14;6.93;;;4.63;;
37693;SDS011;23531;50.122;8.644;2022-10-16T10:57:27;7.05;;;4.45;;
37693;SDS011;23531;50.122;8.644;2022-10-16T10:59:49;6.25;;;5.13;;
37693;SDS011;23531;50.122;8.644;2022-10-16T11:01:58;5.67;;;5.07;;
37693;SDS011;23531;50.122;8.644;2022-10-16T11:04:16;8.77;;;6.68;;
37693;SDS011;23531;50.122;8.644;2022-10-16T11:06:29;8.75;;;6.55;;
37693;SDS011;23531;50.122;8.644;2022-10-16T11:08:35;10.20;;;6.55;;
37693;SDS011;23531;50.122;8.644;2022-10-16T11:10:42;6.97;;;6.28;;
37693;SDS011;23531;50.122;8.644;2022-10-16T11:12:50;9.95;;;7.95;;
37693;SDS011;23531;50.122;8.644;2022-10-16T11:14:57;9.73;;;7.85;;
37693;SDS011;23531;50.122;8.644;2022-10-16T11:17:04;10.93;;;8.18;;
37693;SDS011;23531;50.122;8.644;2022-10-16T11:19:11;50.70;;;39.83;;
37693;SDS011;23531;50.122;8.644;2022-10-16T11:21:16;14.93;;;12.82;;
37693;SDS011;23531;50.122;8.644;2022-10-16T11:23:21;14.65;;;12.73;;
37693;SDS011;23531;50.122;8.644;2022-10-16T11:25:27;14.50;;;11.50;;
37693;SDS011;23531;50.122;8.644;2022-10-16T11:27:33;19.02;;;16.27;;
37693;SDS011;23531;50.122;8.644;2022-10-16T11:29:43;49.97;;;39.60;;
37693;SDS011;23531;50.122;8.644;2022-10-16T11:31:48;21.02;;;16.80;;
37693;SDS011;23531;50.122;8.644;2022-10-16T11:33:54;28.27;;;20.02;;
37693;SDS011;23531;50.122;8.644;2022-10-16T11:36:04;14.77;;;12.68;;
37693;SDS011;23531;50.122;8.644;2022-10-16T11:38:15;14.23;;;12.18;;
37693;SDS011;23531;50.122;8.644;2022-10-16T11:40:25;13.25;;;11.88;;
37693;SDS011;23531;50.122;8.644;2022-10-16T11:42:34;14.18;;;11.10;;
37693;SDS011;23531;50.122;8.644;2022-10-16T11:44:44;11.95;;;10.32;;
37693;SDS011;23531;50.122;8.644;2022-10-16T11:46:54;14.30;;;11.55;;
37693;SDS011;23531;50.122;8.644;2022-10-16T11:49:03;13.52;;;11.27;;
37693;SDS011;23531;50.122;8.644;2022-10-16T11:51:14;17.95;;;11.05;;
37693;SDS011;23531;50.122;8.644;2022-10-16T11:53:23;14.93;;;12.30;;
37693;SDS011;23531;50.122;8.644;2022-10-16T11:55:34;15.82;;;12.45;;
37693;SDS011;23531;50.122;8.644;2022-10-16T11:57:38;13.30;;;11.90;;
37693;SDS011;23531;50.122;8.644;2022-10-16T11:59:46;13.48;;;11.88;;
37693;SDS011;23531;50.122;8.644;2022-10-16T12:01:52;13.07;;;10.95;;
37693;SDS011;23531;50.122;8.644;2022-10-16T12:04:03;11.10;;;10.10;;
37693;SDS011;23531;50.122;8.644;2022-10-16T12:06:18;10.07;;;8.77;;
37693;SDS011;23531;50.122;8.644;2022-10-16T12:08:29;9.75;;;8.85;;
37693;SDS011;23531;50.122;8.644;2022-10-16T12:10:31;9.52;;;8.63;;
37693;SDS011;23531;50.122;8.644;2022-10-16T12:12:37;8.48;;;7.68;;
37693;SDS011;23531;50.122;8.644;2022-10-16T12:14:41;8.23;;;6.82;;
37693;SDS011;23531;50.122;8.644;2022-10-16T12:16:51;9.82;;;7.38;;
37693;SDS011;23531;50.122;8.644;2022-10-16T12:19:10;7.25;;;6.60;;
37693;SDS011;23531;50.122;8.644;2022-10-16T12:21:13;7.22;;;6.25;;
37693;SDS011;23531;50.122;8.644;2022-10-16T12:23:18;6.22;;;5.60;;
37693;SDS011;23531;50.122;8.644;2022-10-16T12:25:23;6.00;;;4.88;;
37693;SDS011;23531;50.122;8.644;2022-10-16T12:27:29;5.22;;;4.68;;
37693;SDS011;23531;50.122;8.644;2022-10-16T12:29:33;10.40;;;9.32;;
37693;SDS011;23531;50.122;8.644;2022-10-16T12:31:37;5.25;;;4.70;;
37693;SDS011;23531;50.122;8.644;2022-10-16T12:33:53;6.43;;;5.82;;
37693;SDS011;23531;50.122;8.644;2022-10-16T12:35:59;9.48;;;7.43;;
37693;SDS011;23531;50.122;8.644;2022-10-16T12:38:07;5.07;;;4.60;;
37693;SDS011;23531;50.122;8.644;2022-10-16T12:40:22;4.65;;;4.25;;
37693;SDS011;23531;50.122;8.644;2022-10-16T12:42:32;6.03;;;5.32;;
37693;SDS011;23531;50.122;8.644;2022-10-16T12:46:38;6.75;;;3.97;;
37693;SDS011;23531;50.122;8.644;2022-10-16T12:48:41;5.18;;;4.68;;
37693;SDS011;23531;50.122;8.644;2022-10-16T12:50:45;5.60;;;4.97;;
37693;SDS011;23531;50.122;8.644;2022-10-16T12:52:47;5.97;;;5.38;;
37693;SDS011;23531;50.122;8.644;2022-10-16T12:54:49;5.13;;;4.63;;
37693;SDS011;23531;50.122;8.644;2022-10-16T12:56:56;6.20;;;4.40;;
37693;SDS011;23531;50.122;8.644;2022-10-16T12:59:09;4.55;;;4.15;;
37693;SDS011;23531;50.122;8.644;2022-10-16T13:01:32;4.32;;;3.60;;
37693;SDS011;23531;50.122;8.644;2022-10-16T13:03:51;4.65;;;3.92;;
37693;SDS011;23531;50.122;8.644;2022-10-16T13:06:06;8.77;;;6.25;;
37693;SDS011;23531;50.122;8.644;2022-10-16T13:08:20;9.60;;;5.65;;
37693;SDS011;23531;50.122;8.644;2022-10-16T13:10:40;5.35;;;3.28;;
37693;SDS011;23531;50.122;8.644;2022-10-16T13:12:58;5.05;;;2.92;;
37693;SDS011;23531;50.122;8.644;2022-10-16T13:15:16;3.85;;;3.03;;
37693;SDS011;23531;50.122;8.644;2022-10-16T13:17:28;4.85;;;3.08;;
37693;SDS011;23531;50.122;8.644;2022-10-16T13:19:38;3.15;;;2.60;;
37693;SDS011;23531;50.122;8.644;2022-10-16T13:21:48;3.17;;;2.50;;
37693;SDS011;23531;50.122;8.644;2022-10-16T13:23:59;7.57;;;5.40;;
37693;SDS011;23531;50.122;8.644;2022-10-16T13:26:11;3.83;;;2.85;;
37693;SDS011;23531;50.122;8.644;2022-10-16T13:28:21;5.22;;;3.40;;
37693;SDS011;23531;50.122;8.644;2022-10-16T13:30:28;4.97;;;2.58;;
37693;SDS011;23531;50.122;8.644;2022-10-16T13:32:31;4.22;;;3.30;;
37693;SDS011;23531;50.122;8.644;2022-10-16T13:34:41;4.53;;;2.58;;
37693;SDS011;23531;50.122;8.644;2022-10-16T13:36:47;4.95;;;2.72;;
37693;SDS011;23531;50.122;8.644;2022-10-16T13:38:58;3.08;;;2.20;;
37693;SDS011;23531;50.122;8.644;2022-10-16T13:41:12;3.10;;;2.65;;
37693;SDS011;23531;50.122;8.644;2022-10-16T13:43:16;3.35;;;2.85;;
37693;SDS011;23531;50.122;8.644;2022-10-16T13:45:19;4.15;;;2.90;;
37693;SDS011;23531;50.122;8.644;2022-10-16T13:47:22;3.30;;;2.92;;
37693;SDS011;23531;50.122;8.644;2022-10-16T13:49:24;2.30;;;2.10;;
37693;SDS011;23531;50.122;8.644;2022-10-16T13:51:26;2.60;;;2.40;;
37693;SDS011;23531;50.122;8.644;2022-10-16T13:53:31;2.60;;;2.40;;
37693;SDS011;23531;50.122;8.644;2022-10-16T13:55:33;3.70;;;2.65;;
37693;SDS011;23531;50.122;8.644;2022-10-16T13:57:34;3.55;;;3.08;;
37693;SDS011;23531;50.122;8.644;2022-10-16T13:59:36;3.80;;;2.40;;
37693;SDS011;23531;50.122;8.644;2022-10-16T14:01:40;3.78;;;3.30;;
37693;SDS011;23531;50.122;8.644;2022-10-16T14:03:43;6.47;;;4.90;;
37693;SDS011;23531;50.122;8.644;2022-10-16T14:05:46;5.93;;;4.43;;
37693;SDS011;23531;50.122;8.644;2022-10-16T14:07:50;3.00;;;2.20;;
37693;SDS011;23531;50.122;8.644;2022-10-16T14:09:54;2.20;;;2.00;;
37693;SDS011;23531;50.122;8.644;2022-10-16T14:11:57;2.28;;;2.08;;
37693;SDS011;23531;50.122;8.644;2022-10-16T14:14:01;2.40;;;2.20;;
37693;SDS011;23531;50.122;8.644;2022-10-16T14:16:05;3.78;;;3.40;;
37693;SDS011;23531;50.122;8.644;2022-10-16T14:18:13;3.05;;;2.80;;
37693;SDS011;23531;50.122;8.644;2022-10-16T14:20:20;3.53;;;2.80;;
37693;SDS011;23531;50.122;8.644;2022-10-16T14:22:30;4.32;;;3.30;;
37693;SDS011;23531;50.122;8.644;2022-10-16T14:24:33;6.13;;;4.45;;
37693;SDS011;23531;50.122;8.644;2022-10-16T14:26:41;10.65;;;6.55;;
37693;SDS011;23531;50.122;8.644;2022-10-16T14:28:44;3.33;;;2.88;;
37693;SDS011;23531;50.122;8.644;2022-10-16T14:30:51;4.28;;;3.40;;
37693;SDS011;23531;50.122;8.644;2022-10-16T14:32:55;4.53;;;3.63;;
37693;SDS011;23531;50.122;8.644;2022-10-16T14:34:58;4.60;;;3.55;;